x

Folly Island, Sc (fbis1) Weather Station

9:00pm - Mon 22nd Dec 2014 All times are EST. -5 hours from GMT.

  • Wind
    8mph, 10mph gusts
  • Air Temp 49°f
  • Sea Pressure 1016.7mb
  • Folly Island, Sc
  • Folly Island, Sc

More Historic Weather Station data

Upgrade to MSW Pro to gain access to the past 30 days of data for over 8000 Wavebouys and Weather Stations around the globe.

Join Pro

Comparision Forecast

View Surf forecast
   
Mon 12/22 9:00pm 8 10 mph 1016.7mb 49f
8:00pm 9 10 mph 1015.7mb 49f
7:00pm 13 15 mph 1015.2mb 49f
6:00pm 13 16 mph 1015.2mb 50f
5:00pm 8 9 mph 1015.5mb 51f
4:00pm 10 11 mph 1015.4mb 49f
3:00pm 7 8 mph 1015.6mb 48f
2:00pm 9 11 mph 1014.9mb 49f
1:00pm 8 10 mph 1015.7mb 48f
12:00pm 9 10 mph 1017.1mb 47f
11:00am 9 11 mph 1018.7mb 47f
10:00am 9 10 mph 1019.1mb 47f
9:00am 9 11 mph 1018.7mb 47f
8:00am 10 13 mph 1018.4mb 47f
7:00am 10 15 mph 1018mb 47f
6:00am 11 14 mph 1017.5mb 47f
5:00am 11 14 mph 1017mb 48f
4:00am 9 13 mph 1017.5mb 49f
3:00am 14 16 mph 1017.7mb 49f
2:00am 16 20 mph 1018.1mb 49f
1:00am 17 20 mph 1018.7mb 49f
12:00am 18 22 mph 1019mb 51f
Sun 12/21 11:00pm 23 26 mph 1019.6mb 52f
10:00pm 21 24 mph 1020.3mb 51f
9:00pm 24 26 mph 1019.7mb 51f
8:00pm 24 28 mph 1020.6mb 51f
7:00pm 21 23 mph 1021.2mb 50f
6:00pm 21 23 mph 1021mb 50f
5:00pm 21 24 mph 1021.2mb 50f
4:00pm 23 25 mph 1021.1mb 50f
3:00pm 17 21 mph 1021.4mb 49f
2:00pm 22 23 mph 1021.3mb 49f
1:00pm 16 18 mph 1022.3mb 49f
12:00pm 14 16 mph 1023.1mb 49f
11:00am 16 18 mph 1023.8mb 48f
10:00am 15 18 mph 1024.1mb 47f
9:00am 14 17 mph 1023.6mb 46f
8:00am 15 18 mph 1023.8mb 46f
7:00am 11 15 mph 1023.5mb 46f
6:00am 13 15 mph 1023mb 46f
5:00am 13 15 mph 1021.9mb 47f
4:00am 11 15 mph 1022.4mb 47f
3:00am 11 15 mph 1022.4mb 48f
2:00am 15 18 mph 1022.3mb 48f
1:00am 14 16 mph 1022.7mb 48f
12:00am 15 16 mph 1023.2mb 49f
Sat 12/20 11:00pm 15 17 mph 1023.4mb 49f
10:00pm 17 21 mph 1023.2mb 50f
9:00pm 18 21 mph 1023.5mb 50f
8:00pm 17 21 mph 1023.2mb 51f
7:00pm 20 22 mph 1023.2mb 51f
6:00pm 20 21 mph 1022.6mb 52f
5:00pm 20 23 mph 1021.9mb 53f
4:00pm 18 21 mph 1021.6mb 53f
3:00pm 17 18 mph 1021.1mb 53f
2:00pm 16 18 mph 1021.2mb 53f
1:00pm 16 20 mph 1021.8mb 54f
12:00pm 16 17 mph 1022.3mb 54f
11:00am 15 18 mph 1023mb 53f
10:00am 8 11 mph 1023.4mb 53f
9:00am 15 17 mph 1022mb 54f
8:00am 16 17 mph 1021.9mb 54f
7:00am 14 15 mph 1021.7mb 54f
6:00am 16 20 mph 1021.1mb 55f
5:00am 18 22 mph 1020.4mb 55f
4:00am 16 18 mph 1020.5mb 55f
3:00am 10 13 mph 1021.4mb 55f
2:00am 14 15 mph 1021.2mb 55f
1:00am 11 13 mph 1021.2mb 53f
12:00am 8 9 mph 1021.7mb 55f
Fri 12/19 11:00pm 10 11 mph 1021.3mb 55f
10:00pm 8 10 mph 1021.3mb 55f
9:00pm 11 14 mph 1021.3mb 56f
8:00pm 14 15 mph 1020.3mb 55f
7:00pm 11 13 mph 1020.7mb 55f
6:00pm 11 13 mph 1020.6mb 55f
5:00pm 10 13 mph 1020.3mb 55f
4:00pm 13 14 mph 1020.2mb 55f
3:00pm 11 13 mph 1019.8mb 56f
2:00pm 13
mph
1019.8mb 56f
1:00pm 9 10 mph 1020.2mb 56f
12:00pm 7 8 mph 1020.7mb 55f
11:00am 3 5 mph 1021.6mb 54f
10:00am 5 6 mph 1021.5mb 53f
9:00am 2 3 mph 1021.4mb 52f
8:00am 3 5 mph 1020.6mb 49f
7:00am 3 5 mph 1020.2mb 49f
6:00am 2
mph
1019.1mb 51f
5:00am 1 2 mph 1018.7mb 50f
4:00am 2
mph
1019.1mb 50f